Wildwood Camp, Iowa
Current Conditions -  °F | °C
As of 10:38 AM on Friday 24 Oct 2014 (Local Time) from KDVN Reporting Station
Moderate Fog Moderate Fog  
Wind Chill: 12°   Ceiling: 200
Heat Index: 12°   Visibility: 0.5mi
Dew Point: 12°   Wind: 9mph
Humidity: 97%   Direction: 180°S
Pressure: 30.07"   Gusts: NA
Location:  41.7317°N, 90.5411°W
Report Text: KDVN 241538Z AUTO 18008KT 1/2SM FG VV002 12/12 A3007 RMK AO2 T01220117 TSNO
Loading
Personal Weather Stations






























Interactive Weather Map
Tropical Storm Tracking
New forecast layout! Learn more

10-Day Weather Forecast

Advertisements
Track Severe Weather on mobile